createdAt,value
2017-12-06T00:01:55.864Z,9.97
2017-12-06T00:04:29.673Z,10.63
2017-12-06T00:07:03.245Z,9.90
2017-12-06T00:09:36.872Z,10.10
2017-12-06T00:12:16.086Z,9.50
2017-12-06T00:14:55.257Z,10.20
2017-12-06T00:17:29.707Z,10.70
2017-12-06T00:20:03.330Z,9.20
2017-12-06T00:22:36.840Z,10.03
2017-12-06T00:25:10.461Z,10.03
2017-12-06T00:27:45.146Z,9.93
2017-12-06T00:30:19.301Z,9.90
2017-12-06T00:32:52.772Z,9.10
2017-12-06T00:35:26.574Z,10.10
2017-12-06T00:38:00.204Z,10.90
2017-12-06T00:40:33.756Z,10.03
2017-12-06T00:43:08.137Z,9.90
2017-12-06T00:45:41.830Z,8.77
2017-12-06T00:48:16.108Z,8.90
2017-12-06T00:50:49.845Z,9.17
2017-12-06T00:53:23.841Z,10.27
2017-12-06T00:55:57.660Z,9.33
2017-12-06T00:58:31.241Z,10.53
2017-12-06T01:01:04.867Z,10.27
2017-12-06T01:03:38.341Z,9.83
2017-12-06T01:06:12.168Z,9.60
2017-12-06T01:08:45.769Z,9.80
2017-12-06T01:11:19.277Z,9.67
2017-12-06T01:13:52.805Z,9.10
2017-12-06T01:16:27.193Z,11.07
2017-12-06T01:19:00.660Z,9.33
2017-12-06T01:21:35.884Z,9.20
2017-12-06T01:24:09.393Z,9.80
2017-12-06T01:26:43.223Z,9.50
2017-12-06T01:29:16.802Z,9.43
2017-12-06T01:31:50.430Z,9.33
2017-12-06T01:34:24.030Z,9.90
2017-12-06T01:36:57.605Z,8.33
2017-12-06T01:39:31.184Z,9.70
2017-12-06T01:42:04.809Z,9.70
2017-12-06T01:44:38.389Z,9.20
2017-12-06T01:47:12.092Z,9.90
2017-12-06T01:49:45.637Z,10.10
2017-12-06T01:52:19.138Z,9.77
2017-12-06T01:54:52.685Z,9.47
2017-12-06T01:57:26.484Z,9.40
2017-12-06T02:00:00.089Z,9.80
2017-12-06T02:02:33.809Z,9.73
2017-12-06T02:05:07.449Z,8.83
2017-12-06T02:07:41.844Z,9.03
2017-12-06T02:10:15.529Z,8.70
2017-12-06T02:12:49.278Z,8.00
2017-12-06T02:15:22.884Z,8.50
2017-12-06T02:17:56.472Z,9.07
2017-12-06T02:20:29.941Z,7.83
2017-12-06T02:23:03.777Z,8.87
2017-12-06T02:25:37.351Z,8.90
2017-12-06T02:28:11.073Z,9.50
2017-12-06T02:30:44.630Z,8.17
2017-12-06T02:33:19.069Z,7.70
2017-12-06T02:35:52.656Z,9.17
2017-12-06T02:38:26.372Z,7.70
2017-12-06T02:41:12.108Z,8.53
2017-12-06T02:43:57.826Z,9.40
2017-12-06T02:46:31.491Z,9.30
2017-12-06T02:49:05.190Z,9.00
2017-12-06T02:51:38.795Z,9.53
2017-12-06T02:54:12.286Z,8.77
2017-12-06T02:56:45.954Z,8.70
2017-12-06T02:59:19.502Z,9.50
2017-12-06T03:01:53.067Z,8.90
2017-12-06T03:04:26.730Z,8.20
2017-12-06T03:07:00.403Z,9.20
2017-12-06T03:09:34.066Z,8.73
2017-12-06T03:12:07.682Z,8.40
2017-12-06T03:14:41.410Z,8.90
2017-12-06T03:17:15.311Z,8.87
2017-12-06T03:19:49.118Z,9.97
2017-12-06T03:22:22.690Z,7.40
2017-12-06T03:24:56.286Z,8.73
2017-12-06T03:27:29.942Z,8.47
2017-12-06T03:30:03.391Z,7.97
2017-12-06T03:32:37.234Z,9.47
2017-12-06T03:35:11.030Z,8.90
2017-12-06T03:37:45.378Z,8.27
2017-12-06T03:40:19.050Z,7.17
2017-12-06T03:42:52.786Z,9.17
2017-12-06T03:45:26.355Z,9.50
2017-12-06T03:47:59.853Z,9.30
2017-12-06T03:50:33.414Z,9.03
2017-12-06T03:53:07.002Z,8.90
2017-12-06T03:55:40.670Z,8.53
2017-12-06T03:58:14.298Z,8.10
2017-12-06T04:00:47.926Z,7.50
2017-12-06T04:03:21.557Z,8.40
2017-12-06T04:05:55.054Z,7.50
2017-12-06T04:08:29.473Z,8.80
2017-12-06T04:11:03.182Z,7.60
2017-12-06T04:13:36.778Z,8.47
2017-12-06T04:16:10.281Z,8.10
2017-12-06T04:18:43.762Z,8.10
2017-12-06T04:21:17.382Z,8.20
2017-12-06T04:23:51.145Z,8.50
2017-12-06T04:26:24.955Z,9.37
2017-12-06T04:28:58.590Z,9.03
2017-12-06T04:31:32.193Z,10.00
2017-12-06T04:34:05.794Z,8.30
2017-12-06T04:36:39.504Z,8.77
2017-12-06T04:39:13.847Z,7.10
2017-12-06T04:41:47.522Z,8.50
2017-12-06T04:44:21.123Z,8.20
2017-12-06T04:46:54.658Z,7.40
2017-12-06T04:49:28.426Z,9.83
2017-12-06T04:52:01.926Z,9.20
2017-12-06T04:54:37.786Z,10.07
2017-12-06T04:57:11.377Z,10.30
2017-12-06T04:59:45.082Z,8.60
2017-12-06T05:02:19.501Z,8.80
2017-12-06T05:04:53.209Z,9.20
2017-12-06T05:07:26.862Z,9.93
2017-12-06T05:10:00.402Z,9.27
2017-12-06T05:12:33.966Z,8.57
2017-12-06T05:15:07.474Z,8.63
2017-12-06T05:17:42.025Z,8.93
2017-12-06T05:20:15.826Z,9.50
2017-12-06T05:22:49.538Z,9.70
2017-12-06T05:25:23.302Z,9.83
2017-12-06T05:27:57.762Z,9.30
2017-12-06T05:30:31.432Z,10.03
2017-12-06T05:33:04.846Z,9.60
2017-12-06T05:35:38.458Z,9.90
2017-12-06T05:38:11.962Z,8.83
2017-12-06T05:40:46.178Z,8.83
2017-12-06T05:43:20.286Z,8.37
2017-12-06T05:45:53.917Z,7.00
2017-12-06T05:48:27.546Z,8.93
2017-12-06T05:51:01.194Z,9.53
2017-12-06T05:53:35.102Z,8.43
2017-12-06T05:56:08.806Z,9.00
2017-12-06T05:58:42.610Z,7.80
2017-12-06T06:01:16.310Z,9.07
2017-12-06T06:03:49.886Z,8.13
2017-12-06T06:06:24.950Z,8.80
2017-12-06T06:08:58.446Z,8.70
2017-12-06T06:11:32.062Z,9.03
2017-12-06T06:14:05.645Z,9.80
2017-12-06T06:16:39.309Z,8.00
2017-12-06T06:19:13.486Z,8.90
2017-12-06T06:21:47.886Z,8.60
2017-12-06T06:24:21.492Z,7.97
2017-12-06T06:26:55.290Z,8.53
2017-12-06T06:29:28.846Z,9.00
2017-12-06T06:32:03.174Z,8.80
2017-12-06T06:34:37.454Z,8.93
2017-12-06T06:37:11.126Z,8.60
2017-12-06T06:39:44.811Z,8.20
2017-12-06T06:42:18.317Z,8.73
2017-12-06T06:44:52.859Z,11.40
2017-12-06T06:47:26.554Z,9.30
2017-12-06T06:50:00.368Z,10.80
2017-12-06T06:52:33.872Z,10.20
2017-12-06T06:55:08.282Z,9.37
2017-12-06T06:57:42.249Z,9.57
2017-12-06T07:00:16.098Z,10.37
2017-12-06T07:02:50.006Z,10.10
2017-12-06T07:05:23.617Z,10.90
2017-12-06T07:07:57.290Z,10.47
2017-12-06T07:10:30.954Z,10.63
2017-12-06T07:13:04.763Z,10.43
2017-12-06T07:15:38.421Z,10.37
2017-12-06T07:18:25.283Z,10.50
2017-12-06T07:20:59.034Z,10.40
2017-12-06T07:23:32.540Z,9.20
2017-12-06T07:26:06.135Z,9.27
2017-12-06T07:28:39.810Z,10.70
2017-12-06T07:31:13.411Z,10.57
2017-12-06T07:33:47.043Z,9.80
2017-12-06T07:36:21.330Z,11.53
2017-12-06T07:38:55.062Z,9.30
2017-12-06T07:41:28.619Z,9.40
2017-12-06T07:44:02.231Z,10.10
2017-12-06T07:46:35.869Z,10.00
2017-12-06T07:49:09.338Z,10.00
2017-12-06T07:51:42.968Z,10.90
2017-12-06T07:54:16.421Z,10.63
2017-12-06T07:56:49.938Z,10.63
2017-12-06T07:59:23.562Z,10.20
2017-12-06T08:01:57.068Z,9.50
2017-12-06T08:04:30.706Z,11.00
2017-12-06T08:07:04.198Z,9.97
2017-12-06T08:09:38.553Z,10.10
2017-12-06T08:12:12.184Z,10.20
2017-12-06T08:14:45.642Z,9.70
2017-12-06T08:17:19.278Z,8.77
2017-12-06T08:19:52.778Z,9.67
2017-12-06T08:22:26.478Z,9.33
2017-12-06T08:25:00.177Z,9.30
2017-12-06T08:27:34.006Z,9.43
2017-12-06T08:30:07.902Z,8.67
2017-12-06T08:32:41.493Z,9.13
2017-12-06T08:35:15.104Z,9.70
2017-12-06T08:37:48.660Z,8.60
2017-12-06T08:40:22.311Z,8.93
2017-12-06T08:42:55.898Z,8.37
2017-12-06T08:45:29.488Z,9.80
2017-12-06T08:48:03.054Z,10.17
2017-12-06T08:50:36.594Z,8.87
2017-12-06T08:53:10.103Z,8.40
2017-12-06T08:55:44.418Z,8.03
2017-12-06T08:58:18.110Z,7.63
2017-12-06T09:00:51.734Z,9.40
2017-12-06T09:03:26.010Z,7.50
2017-12-06T09:05:59.762Z,7.50
2017-12-06T09:08:33.304Z,8.13
2017-12-06T09:11:06.842Z,6.93
2017-12-06T09:13:40.646Z,8.13
2017-12-06T09:16:15.072Z,8.27
2017-12-06T09:18:49.074Z,7.00
2017-12-06T09:21:23.582Z,6.37
2017-12-06T09:23:57.279Z,6.80
2017-12-06T09:26:30.902Z,7.13
2017-12-06T09:29:05.038Z,6.87
2017-12-06T09:31:38.722Z,6.03
2017-12-06T09:34:12.410Z,6.50
2017-12-06T09:36:46.026Z,6.93
2017-12-06T09:39:19.737Z,7.17
2017-12-06T09:41:54.846Z,7.07
2017-12-06T09:44:28.422Z,6.77
2017-12-06T09:47:02.014Z,6.17
2017-12-06T09:49:36.346Z,6.50
2017-12-06T09:52:09.982Z,6.03
2017-12-06T09:54:43.582Z,6.40
2017-12-06T09:57:17.290Z,5.53
2017-12-06T09:59:50.790Z,6.00
2017-12-06T10:02:24.797Z,6.53
2017-12-06T10:04:58.398Z,6.13
2017-12-06T10:07:32.714Z,5.33
2017-12-06T10:10:06.994Z,6.20
2017-12-06T10:12:41.534Z,5.63
2017-12-06T10:15:15.014Z,6.17
2017-12-06T10:17:48.769Z,6.23
2017-12-06T10:20:22.462Z,6.43
2017-12-06T10:22:56.574Z,7.27
2017-12-06T10:25:30.254Z,7.20
2017-12-06T10:28:04.678Z,7.57
2017-12-06T10:30:39.014Z,6.80
2017-12-06T10:33:13.506Z,7.53
2017-12-06T10:35:47.222Z,6.70
2017-12-06T10:38:21.662Z,6.57
2017-12-06T10:40:55.262Z,7.73
2017-12-06T10:43:28.814Z,6.57
2017-12-06T10:46:02.454Z,6.83
2017-12-06T10:48:36.094Z,6.90
2017-12-06T10:51:10.118Z,6.70
2017-12-06T10:53:44.588Z,7.30
2017-12-06T10:56:19.118Z,7.60
2017-12-06T10:58:53.538Z,6.70
2017-12-06T11:01:27.133Z,7.70
2017-12-06T11:04:00.634Z,6.60
2017-12-06T11:06:35.062Z,7.00
2017-12-06T11:09:08.746Z,8.43
2017-12-06T11:11:43.078Z,7.63
2017-12-06T11:14:16.734Z,6.53
2017-12-06T11:16:50.701Z,6.43
2017-12-06T11:19:24.400Z,6.70
2017-12-06T11:21:57.974Z,6.73
2017-12-06T11:24:32.198Z,7.43
2017-12-06T11:27:05.814Z,7.00
2017-12-06T11:29:40.894Z,7.00
2017-12-06T11:32:14.654Z,6.87
2017-12-06T11:34:48.357Z,6.10
2017-12-06T11:37:22.059Z,6.53
2017-12-06T11:39:55.762Z,6.60
2017-12-06T11:42:29.368Z,6.50
2017-12-06T11:45:02.872Z,7.60
2017-12-06T11:47:36.405Z,7.80
2017-12-06T11:50:10.979Z,7.67
2017-12-06T11:52:44.543Z,7.50
2017-12-06T11:55:18.186Z,8.40
2017-12-06T11:57:51.954Z,6.63
2017-12-06T12:00:25.546Z,7.67
2017-12-06T12:02:59.282Z,6.87
2017-12-06T12:05:33.419Z,7.10
2017-12-06T12:08:07.930Z,9.13
2017-12-06T12:10:41.534Z,8.50
2017-12-06T12:13:15.339Z,7.10
2017-12-06T12:15:48.838Z,7.10
2017-12-06T12:18:22.307Z,7.60
2017-12-06T12:20:55.941Z,7.60
2017-12-06T12:23:29.862Z,7.53
2017-12-06T12:26:03.506Z,7.33
2017-12-06T12:28:37.141Z,7.50
2017-12-06T12:31:11.160Z,8.50
2017-12-06T12:33:44.759Z,7.67
2017-12-06T12:36:18.369Z,8.40
2017-12-06T12:38:51.804Z,7.80
2017-12-06T12:41:25.430Z,7.17
2017-12-06T12:43:59.057Z,7.80
2017-12-06T12:46:32.655Z,6.70
2017-12-06T12:49:06.462Z,6.90
2017-12-06T12:51:40.270Z,6.63
2017-12-06T12:54:14.022Z,6.37
2017-12-06T12:56:47.683Z,6.23
2017-12-06T12:59:21.382Z,6.50
2017-12-06T13:01:54.988Z,6.50
2017-12-06T13:04:28.729Z,6.80
2017-12-06T13:07:02.292Z,7.13
2017-12-06T13:09:35.885Z,6.90
2017-12-06T13:12:09.590Z,6.40
2017-12-06T13:14:43.096Z,7.03
2017-12-06T13:17:16.895Z,5.87
2017-12-06T13:19:50.458Z,6.83
2017-12-06T13:22:25.017Z,6.33
2017-12-06T13:24:58.674Z,6.90
2017-12-06T13:27:32.215Z,6.33
2017-12-06T13:30:07.146Z,5.83
2017-12-06T13:32:40.745Z,7.63
2017-12-06T13:35:14.363Z,6.50
2017-12-06T13:37:48.025Z,7.10
2017-12-06T13:40:21.658Z,6.30
2017-12-06T13:42:55.238Z,6.97
2017-12-06T13:45:28.817Z,6.67
2017-12-06T13:48:02.458Z,7.33
2017-12-06T13:50:36.169Z,7.03
2017-12-06T13:53:09.766Z,6.60
2017-12-06T13:55:43.508Z,6.63
2017-12-06T13:58:17.280Z,7.60
2017-12-06T14:00:50.974Z,7.37
2017-12-06T14:03:25.274Z,7.23
2017-12-06T14:05:58.900Z,6.80
2017-12-06T14:08:32.598Z,7.30
2017-12-06T14:11:06.074Z,6.70
2017-12-06T14:13:39.690Z,7.23
2017-12-06T14:16:14.298Z,7.70
2017-12-06T14:18:47.925Z,8.10
2017-12-06T14:21:21.461Z,7.10
2017-12-06T14:23:55.114Z,6.20
2017-12-06T14:26:28.926Z,7.27
2017-12-06T14:29:02.630Z,7.20
2017-12-06T14:31:36.238Z,6.87
2017-12-06T14:34:10.038Z,6.87
2017-12-06T14:36:44.514Z,6.73
2017-12-06T14:39:18.158Z,7.10
2017-12-06T14:41:51.757Z,6.33
2017-12-06T14:44:25.570Z,7.03
2017-12-06T14:46:59.067Z,7.53
2017-12-06T14:49:32.670Z,6.50
2017-12-06T14:52:06.270Z,7.13
2017-12-06T14:54:39.870Z,6.87
2017-12-06T14:57:13.414Z,7.00
2017-12-06T14:59:47.185Z,6.63
2017-12-06T15:02:20.811Z,7.40
2017-12-06T15:04:54.341Z,6.23
2017-12-06T15:07:27.978Z,8.10
2017-12-06T15:10:01.470Z,6.43
2017-12-06T15:12:37.794Z,6.70
2017-12-06T15:15:09.498Z,6.70
2017-12-06T15:17:43.851Z,6.97
2017-12-06T15:20:17.363Z,6.77
2017-12-06T15:22:51.834Z,7.40
2017-12-06T15:25:25.430Z,6.23
2017-12-06T15:27:58.974Z,7.20
2017-12-06T15:30:32.634Z,6.27
2017-12-06T15:33:06.234Z,6.80
2017-12-06T15:35:39.712Z,7.10
2017-12-06T15:38:13.334Z,7.43
2017-12-06T15:40:46.938Z,6.63
2017-12-06T15:43:20.494Z,5.90
2017-12-06T15:45:54.033Z,6.80
2017-12-06T15:48:27.634Z,7.70
2017-12-06T15:51:01.354Z,7.10
2017-12-06T15:53:35.822Z,6.63
2017-12-06T15:56:09.561Z,5.77
2017-12-06T15:58:43.523Z,6.70
2017-12-06T16:01:17.094Z,6.40
2017-12-06T16:03:50.778Z,7.73
2017-12-06T16:06:24.384Z,6.50
2017-12-06T16:08:58.774Z,7.20
2017-12-06T16:11:32.601Z,6.27
2017-12-06T16:14:06.118Z,6.83
2017-12-06T16:16:40.830Z,6.50
2017-12-06T16:19:14.271Z,6.30
2017-12-06T16:21:47.934Z,7.07
2017-12-06T16:24:21.634Z,6.90
2017-12-06T16:26:55.349Z,7.30
2017-12-06T16:29:28.885Z,7.30
2017-12-06T16:32:02.746Z,7.50
2017-12-06T16:34:36.557Z,7.17
2017-12-06T16:37:23.158Z,6.40
2017-12-06T16:39:56.722Z,7.90
2017-12-06T16:42:30.462Z,6.77
2017-12-06T16:45:04.062Z,7.77
2017-12-06T16:47:37.867Z,7.90
2017-12-06T16:50:11.569Z,7.50
2017-12-06T16:52:45.134Z,7.80
2017-12-06T16:55:18.718Z,8.23
2017-12-06T16:57:52.373Z,8.07
2017-12-06T17:00:25.827Z,7.10
2017-12-06T17:03:00.050Z,9.70
2017-12-06T17:05:34.570Z,9.80
2017-12-06T17:08:08.262Z,9.37
2017-12-06T17:10:41.913Z,10.70
2017-12-06T17:13:15.511Z,9.30
2017-12-06T17:15:49.009Z,10.60
2017-12-06T17:18:22.509Z,10.07
2017-12-06T17:20:56.110Z,10.20
2017-12-06T17:23:29.616Z,11.57
2017-12-06T17:26:03.114Z,10.60
2017-12-06T17:29:00.371Z,11.23
2017-12-06T17:31:42.577Z,12.30
2017-12-06T17:34:16.374Z,11.63
2017-12-06T17:36:49.925Z,9.70
2017-12-06T17:39:23.580Z,12.03
2017-12-06T17:41:57.113Z,12.40
2017-12-06T17:44:30.782Z,11.93
2017-12-06T17:47:04.410Z,12.60
2017-12-06T17:49:38.485Z,23.03
2017-12-06T17:52:12.090Z,19.40
2017-12-06T17:54:45.788Z,16.07
2017-12-06T17:57:20.558Z,12.00
2017-12-06T17:59:55.733Z,11.87
2017-12-06T18:02:30.242Z,12.47
2017-12-06T18:05:08.862Z,12.40
2017-12-06T18:07:42.502Z,12.10
2017-12-06T18:10:16.066Z,12.30
2017-12-06T18:12:49.672Z,11.57
2017-12-06T18:15:24.233Z,11.60
2017-12-06T18:17:57.830Z,11.07
2017-12-06T18:20:31.331Z,11.70
2017-12-06T18:23:04.914Z,10.97
2017-12-06T18:25:38.482Z,11.83
2017-12-06T18:28:12.094Z,11.47
2017-12-06T18:30:45.633Z,12.50
2017-12-06T18:33:19.225Z,10.60
2017-12-06T18:35:52.732Z,10.87
2017-12-06T18:38:27.881Z,11.50
2017-12-06T18:41:01.351Z,11.10
2017-12-06T18:43:35.663Z,11.53
2017-12-06T18:46:09.262Z,11.40
2017-12-06T18:48:43.092Z,11.67
2017-12-06T18:51:16.892Z,11.80
2017-12-06T18:53:50.474Z,12.50
2017-12-06T18:56:24.103Z,11.20
2017-12-06T18:58:57.660Z,11.80
2017-12-06T19:01:31.151Z,9.80
2017-12-06T19:04:04.657Z,11.57
2017-12-06T19:06:38.262Z,11.73
2017-12-06T19:09:11.849Z,11.17
2017-12-06T19:11:45.498Z,11.37
2017-12-06T19:14:19.154Z,11.40
2017-12-06T19:16:52.592Z,11.70
2017-12-06T19:19:26.033Z,10.57
2017-12-06T19:21:59.707Z,11.60
2017-12-06T19:24:33.366Z,12.37
2017-12-06T19:27:07.577Z,12.00
2017-12-06T19:29:41.786Z,10.40
2017-12-06T19:32:16.222Z,10.57
2017-12-06T19:34:49.856Z,14.53
2017-12-06T19:37:24.144Z,17.00
2017-12-06T19:39:58.351Z,14.33
2017-12-06T19:42:31.888Z,12.53
2017-12-06T19:45:05.466Z,11.27
2017-12-06T19:47:38.994Z,12.27
2017-12-06T19:50:13.267Z,12.00
2017-12-06T19:52:47.487Z,10.77
2017-12-06T19:55:21.698Z,11.70
2017-12-06T19:57:55.290Z,13.00
2017-12-06T20:00:28.958Z,11.03
2017-12-06T20:03:02.582Z,12.93
2017-12-06T20:05:36.094Z,12.60
2017-12-06T20:08:09.623Z,12.13
2017-12-06T20:10:43.132Z,12.80
2017-12-06T20:13:16.670Z,12.50
2017-12-06T20:15:50.186Z,11.37
2017-12-06T20:18:23.725Z,11.27
2017-12-06T20:20:57.193Z,11.87
2017-12-06T20:23:30.718Z,10.73
2017-12-06T20:26:05.118Z,12.10
2017-12-06T20:28:39.334Z,12.13
2017-12-06T20:31:13.549Z,11.63
2017-12-06T20:33:47.079Z,11.73
2017-12-06T20:36:20.734Z,12.10
2017-12-06T20:38:54.182Z,11.20
2017-12-06T20:41:27.818Z,12.07
2017-12-06T20:44:01.494Z,16.30
2017-12-06T20:46:34.974Z,11.90
2017-12-06T20:49:08.445Z,11.23
2017-12-06T20:51:41.966Z,13.67
2017-12-06T20:54:15.530Z,12.10
2017-12-06T20:56:49.054Z,12.90
2017-12-06T20:59:22.594Z,12.37
2017-12-06T21:01:56.121Z,12.80
2017-12-06T21:04:29.586Z,13.10
2017-12-06T21:07:03.025Z,11.60
2017-12-06T21:09:36.545Z,12.87
2017-12-06T21:12:10.068Z,13.10
2017-12-06T21:14:43.702Z,12.53
2017-12-06T21:17:17.354Z,11.60
2017-12-06T21:19:50.838Z,13.10
2017-12-06T21:22:25.238Z,12.63
2017-12-06T21:24:58.804Z,13.23
2017-12-06T21:27:32.331Z,13.87
2017-12-06T21:30:05.773Z,13.30
2017-12-06T21:32:40.049Z,15.40
2017-12-06T21:35:13.708Z,14.13
2017-12-06T21:37:47.165Z,13.50
2017-12-06T21:40:21.478Z,12.50
2017-12-06T21:42:54.974Z,12.13
2017-12-06T21:45:29.026Z,13.00
2017-12-06T21:48:02.926Z,13.27
2017-12-06T21:50:37.218Z,11.43
2017-12-06T21:53:10.814Z,11.70
2017-12-06T21:55:44.414Z,12.77
2017-12-06T21:58:17.995Z,12.40
2017-12-06T22:00:51.594Z,13.30
2017-12-06T22:03:25.250Z,12.97
2017-12-06T22:05:58.749Z,13.20
2017-12-06T22:08:32.305Z,12.30
2017-12-06T22:11:05.853Z,12.40
2017-12-06T22:13:40.169Z,11.77
2017-12-06T22:16:13.873Z,12.43
2017-12-06T22:18:47.469Z,13.63
2017-12-06T22:21:20.973Z,12.00
2017-12-06T22:23:54.654Z,13.27
2017-12-06T22:26:28.226Z,16.13
2017-12-06T22:29:01.734Z,19.40
2017-12-06T22:31:35.376Z,13.10
2017-12-06T22:34:09.074Z,12.97
2017-12-06T22:36:42.766Z,11.87
2017-12-06T22:39:16.378Z,12.67
2017-12-06T22:41:49.984Z,11.60
2017-12-06T22:44:23.479Z,11.87
2017-12-06T22:46:57.183Z,11.80
2017-12-06T22:49:30.781Z,12.60
2017-12-06T22:52:04.487Z,10.80
2017-12-06T22:54:38.070Z,12.03
2017-12-06T22:57:11.686Z,12.73
2017-12-06T22:59:45.973Z,12.13
2017-12-06T23:02:19.810Z,12.30
2017-12-06T23:04:53.514Z,12.27
2017-12-06T23:07:27.234Z,12.60
2017-12-06T23:10:00.766Z,12.43
2017-12-06T23:12:34.390Z,11.60
2017-12-06T23:15:08.018Z,11.17
2017-12-06T23:17:41.494Z,11.47
2017-12-06T23:20:15.123Z,11.30
2017-12-06T23:22:48.922Z,11.27
2017-12-06T23:25:22.362Z,12.80
2017-12-06T23:27:55.918Z,11.40
2017-12-06T23:30:30.342Z,14.20
2017-12-06T23:33:03.939Z,14.50
2017-12-06T23:35:37.402Z,21.13
2017-12-06T23:38:10.947Z,14.37
2017-12-06T23:40:44.538Z,16.50
2017-12-06T23:43:18.247Z,15.90
2017-12-06T23:45:51.754Z,12.10
2017-12-06T23:48:25.342Z,11.87
2017-12-06T23:50:58.941Z,11.80
2017-12-06T23:53:32.418Z,11.10
2017-12-06T23:56:06.001Z,10.47
2017-12-06T23:58:39.846Z,9.90
